createdAt,value
2022-11-01T00:02:07.801Z,8.23
2022-11-01T00:04:34.972Z,6.10
2022-11-01T00:07:02.165Z,5.90
2022-11-01T00:09:29.298Z,10.80
2022-11-01T00:11:56.453Z,9.20
2022-11-01T00:14:23.684Z,7.05
2022-11-01T00:16:51.196Z,10.98
2022-11-01T00:19:18.396Z,9.57
2022-11-01T00:21:45.641Z,7.68
2022-11-01T00:24:12.810Z,8.57
2022-11-01T00:26:40.119Z,8.23
2022-11-01T00:29:07.418Z,9.55
2022-11-01T00:31:34.734Z,12.85
2022-11-01T00:34:05.439Z,7.28
2022-11-01T00:36:33.840Z,4.90
2022-11-01T00:39:01.077Z,9.02
2022-11-01T00:41:28.259Z,11.68
2022-11-01T00:43:55.465Z,9.40
2022-11-01T00:46:22.603Z,8.80
2022-11-01T00:48:49.924Z,7.05
2022-11-01T00:51:17.091Z,12.50
2022-11-01T00:53:44.238Z,6.70
2022-11-01T00:56:11.349Z,7.65
2022-11-01T00:58:38.501Z,5.05
2022-11-01T01:01:06.100Z,11.90
2022-11-01T01:03:33.346Z,8.50
2022-11-01T01:06:00.504Z,14.38
2022-11-01T01:08:27.814Z,11.00
2022-11-01T01:10:55.258Z,10.43
2022-11-01T01:13:23.163Z,10.00
2022-11-01T01:15:50.388Z,11.57
2022-11-01T01:18:17.677Z,9.95
2022-11-01T01:20:44.822Z,9.15
2022-11-01T01:23:12.017Z,11.30
2022-11-01T01:25:41.092Z,9.63
2022-11-01T01:28:08.770Z,7.28
2022-11-01T01:30:39.305Z,10.35
2022-11-01T01:33:06.473Z,11.73
2022-11-01T01:35:33.641Z,12.27
2022-11-01T01:38:01.008Z,12.98
2022-11-01T01:40:28.412Z,13.48
2022-11-01T01:42:55.544Z,16.80
2022-11-01T01:45:36.222Z,9.77
2022-11-01T01:48:16.425Z,13.82
2022-11-01T01:50:51.774Z,7.57
2022-11-01T01:53:21.913Z,7.13
2022-11-01T01:55:56.205Z,7.57
2022-11-01T01:58:26.094Z,5.22
2022-11-01T02:00:54.088Z,8.52
2022-11-01T02:03:22.575Z,13.25
2022-11-01T02:05:59.860Z,15.02
2022-11-01T02:08:30.243Z,11.70
2022-11-01T02:11:03.004Z,9.40
2022-11-01T02:13:31.456Z,13.07
2022-11-01T02:15:59.310Z,10.65
2022-11-01T02:18:41.937Z,9.75
2022-11-01T02:21:20.982Z,5.75
2022-11-01T02:24:08.686Z,8.80
2022-11-01T02:26:54.721Z,9.63
2022-11-01T02:29:52.518Z,7.63
2022-11-01T02:32:34.482Z,10.18
2022-11-01T02:35:39.145Z,8.45
2022-11-01T02:38:15.160Z,7.50
2022-11-01T02:41:24.608Z,9.30
2022-11-01T02:43:56.898Z,10.23
2022-11-01T02:47:02.428Z,12.25
2022-11-01T02:49:47.314Z,9.05
2022-11-01T02:52:42.393Z,12.32
2022-11-01T02:55:38.578Z,13.65
2022-11-01T02:58:35.468Z,8.15
2022-11-01T03:01:42.850Z,10.70
2022-11-01T03:04:42.252Z,6.43
2022-11-01T03:07:12.672Z,8.90
2022-11-01T03:09:41.040Z,4.03
2022-11-01T03:12:18.462Z,8.75
2022-11-01T03:15:02.568Z,6.97
2022-11-01T03:17:46.911Z,5.45
2022-11-01T03:20:21.031Z,7.35
2022-11-01T03:22:52.896Z,7.80
2022-11-01T03:25:40.137Z,9.98
2022-11-01T03:28:19.125Z,7.10
2022-11-01T03:30:56.131Z,10.00
2022-11-01T03:33:24.966Z,9.30
2022-11-01T03:35:54.418Z,7.95
2022-11-01T03:38:24.770Z,9.43
2022-11-01T03:40:56.422Z,6.28
2022-11-01T03:43:25.316Z,6.47
2022-11-01T03:45:52.626Z,10.07
2022-11-01T03:48:19.812Z,8.73
2022-11-01T03:50:48.537Z,3.47
2022-11-01T03:53:16.060Z,10.80
2022-11-01T03:55:43.706Z,5.75
2022-11-01T03:58:11.315Z,4.88
2022-11-01T04:00:42.496Z,3.72
2022-11-01T04:05:39.488Z,3.72
2022-11-01T04:08:07.321Z,8.77
2022-11-01T04:10:34.797Z,8.15
2022-11-01T04:13:02.286Z,7.90
2022-11-01T04:15:48.521Z,4.85
2022-11-01T04:18:42.103Z,3.50
2022-11-01T04:21:10.088Z,7.22
2022-11-01T04:23:37.441Z,7.65
2022-11-01T04:26:05.658Z,6.53
2022-11-01T04:28:32.800Z,7.03
2022-11-01T04:31:00.066Z,3.83
2022-11-01T04:33:27.241Z,5.80
2022-11-01T04:35:54.395Z,7.55
2022-11-01T04:38:21.698Z,6.30
2022-11-01T04:40:48.833Z,4.68
2022-11-01T04:43:16.419Z,4.07
2022-11-01T04:45:43.631Z,5.13
2022-11-01T04:48:15.880Z,2.88
2022-11-01T04:50:45.415Z,4.55
2022-11-01T04:53:12.949Z,5.90
2022-11-01T04:55:40.349Z,4.15
2022-11-01T04:58:08.549Z,7.15
2022-11-01T05:00:35.424Z,4.60
2022-11-01T05:03:05.834Z,3.78
2022-11-01T05:05:33.263Z,5.18
2022-11-01T05:08:07.061Z,8.02
2022-11-01T05:10:35.937Z,5.22
2022-11-01T05:13:03.087Z,6.05
2022-11-01T05:15:30.332Z,7.43
2022-11-01T05:17:57.753Z,7.68
2022-11-01T05:20:24.622Z,7.03
2022-11-01T05:22:51.385Z,2.97
2022-11-01T05:25:18.224Z,5.22
2022-11-01T05:27:44.962Z,7.07
2022-11-01T05:30:12.781Z,4.22
2022-11-01T05:32:39.577Z,5.82
2022-11-01T05:35:06.489Z,3.53
2022-11-01T05:37:33.282Z,3.22
2022-11-01T05:40:00.060Z,6.57
2022-11-01T05:42:26.838Z,3.10
2022-11-01T05:44:53.632Z,3.00
2022-11-01T05:47:20.824Z,6.00
2022-11-01T05:49:47.607Z,4.25
2022-11-01T05:52:14.381Z,5.55
2022-11-01T05:54:41.103Z,3.35
2022-11-01T05:57:07.838Z,4.07
2022-11-01T05:59:34.578Z,2.47
2022-11-01T06:02:01.481Z,5.50
2022-11-01T06:04:28.345Z,4.03
2022-11-01T06:06:55.132Z,6.63
2022-11-01T06:09:22.275Z,3.80
2022-11-01T06:11:49.853Z,3.35
2022-11-01T06:14:16.728Z,2.58
2022-11-01T06:16:45.074Z,1.90
2022-11-01T06:19:11.904Z,3.83
2022-11-01T06:21:38.644Z,1.10
2022-11-01T06:24:05.644Z,3.58
2022-11-01T06:26:32.393Z,2.88
2022-11-01T06:29:03.090Z,5.15
2022-11-01T06:31:30.369Z,2.42
2022-11-01T06:33:57.414Z,2.55
2022-11-01T06:36:24.408Z,1.38
2022-11-01T06:38:51.262Z,3.10
2022-11-01T06:41:18.071Z,1.85
2022-11-01T06:43:44.828Z,2.70
2022-11-01T06:46:11.561Z,2.88
2022-11-01T06:48:38.338Z,3.15
2022-11-01T06:51:05.579Z,2.53
2022-11-01T06:53:32.430Z,3.15
2022-11-01T06:56:00.416Z,2.63
2022-11-01T06:58:27.771Z,4.00
2022-11-01T07:00:54.598Z,2.58
2022-11-01T07:03:21.415Z,3.08
2022-11-01T07:05:49.993Z,3.30
2022-11-01T07:08:17.169Z,1.77
2022-11-01T07:10:44.432Z,1.75
2022-11-01T07:13:13.828Z,1.83
2022-11-01T07:15:41.184Z,3.80
2022-11-01T07:18:08.686Z,3.45
2022-11-01T07:20:41.868Z,2.47
2022-11-01T07:23:15.606Z,1.30
2022-11-01T07:25:43.320Z,3.80
2022-11-01T07:28:10.939Z,1.00
2022-11-01T07:30:37.744Z,1.73
2022-11-01T07:33:05.363Z,1.08
2022-11-01T07:35:33.730Z,2.63
2022-11-01T07:38:03.873Z,1.20
2022-11-01T07:40:35.496Z,1.63
2022-11-01T07:43:02.850Z,1.45
2022-11-01T07:45:31.997Z,0.93
2022-11-01T07:48:05.366Z,1.75
2022-11-01T07:50:34.208Z,2.30
2022-11-01T07:53:07.679Z,1.35
2022-11-01T07:55:35.543Z,1.70
2022-11-01T07:58:03.988Z,1.58
2022-11-01T08:00:31.855Z,1.73
2022-11-01T08:03:03.624Z,1.73
2022-11-01T08:05:31.672Z,2.58
2022-11-01T08:07:58.751Z,2.83
2022-11-01T08:10:26.885Z,1.88
2022-11-01T08:13:12.554Z,1.27
2022-11-01T08:15:39.371Z,1.10
2022-11-01T08:18:06.424Z,1.92
2022-11-01T08:20:33.674Z,1.27
2022-11-01T08:23:00.789Z,1.10
2022-11-01T08:25:27.719Z,1.10
2022-11-01T08:27:54.481Z,0.70
2022-11-01T08:30:21.264Z,4.00
2022-11-01T08:32:47.998Z,1.73
2022-11-01T08:35:14.861Z,0.30
2022-11-01T08:37:51.754Z,0.73
2022-11-01T08:40:19.481Z,0.95
2022-11-01T08:42:46.757Z,0.98
2022-11-01T08:45:14.410Z,1.80
2022-11-01T08:47:41.804Z,1.77
2022-11-01T08:50:12.775Z,1.80
2022-11-01T08:52:40.950Z,0.52
2022-11-01T08:55:09.502Z,0.80
2022-11-01T08:57:36.331Z,2.45
2022-11-01T09:00:07.024Z,1.30
2022-11-01T09:02:34.466Z,1.83
2022-11-01T09:05:05.008Z,3.63
2022-11-01T09:07:36.277Z,1.63
2022-11-01T09:10:04.614Z,2.33
2022-11-01T09:12:31.434Z,1.58
2022-11-01T09:14:58.312Z,1.70
2022-11-01T09:17:25.070Z,1.65
2022-11-01T09:19:51.842Z,1.13
2022-11-01T09:22:18.621Z,0.82
2022-11-01T09:24:45.515Z,2.75
2022-11-01T09:27:12.350Z,0.60
2022-11-01T09:29:39.176Z,1.38
2022-11-01T09:32:09.209Z,2.38
2022-11-01T09:34:36.010Z,2.58
2022-11-01T09:37:02.897Z,2.70
2022-11-01T09:39:29.641Z,1.80
2022-11-01T09:42:05.880Z,3.55
2022-11-01T09:44:39.063Z,2.33
2022-11-01T09:47:16.512Z,1.25
2022-11-01T09:49:50.242Z,4.53
2022-11-01T09:52:23.074Z,1.67
2022-11-01T09:54:50.359Z,4.60
2022-11-01T09:57:28.986Z,2.38
2022-11-01T10:00:07.831Z,2.53
2022-11-01T10:02:52.775Z,2.70
2022-11-01T10:05:57.717Z,1.50
2022-11-01T10:08:58.000Z,5.30
2022-11-01T10:12:07.270Z,0.80
2022-11-01T10:14:59.648Z,5.28
2022-11-01T10:17:52.502Z,3.67
2022-11-01T10:20:32.802Z,2.33
2022-11-01T10:23:04.950Z,3.95
2022-11-01T10:25:44.140Z,1.85
2022-11-01T10:28:34.049Z,1.60
2022-11-01T10:31:58.345Z,3.05
2022-11-01T10:34:30.848Z,2.70
2022-11-01T10:37:51.813Z,1.63
2022-11-01T10:40:39.901Z,3.22
2022-11-01T10:43:14.942Z,3.05
2022-11-01T10:45:47.584Z,2.95
2022-11-01T10:48:29.000Z,4.40
2022-11-01T10:51:01.026Z,3.38
2022-11-01T10:53:33.149Z,2.10
2022-11-01T10:56:08.923Z,5.47
2022-11-01T10:58:53.724Z,4.70
2022-11-01T11:01:25.004Z,2.08
2022-11-01T11:03:52.781Z,1.52
2022-11-01T11:06:20.329Z,2.63
2022-11-01T11:08:53.084Z,3.28
2022-11-01T11:11:42.399Z,3.38
2022-11-01T11:14:11.578Z,3.08
2022-11-01T11:16:48.409Z,3.85
2022-11-01T11:19:19.480Z,1.55
2022-11-01T11:27:22.047Z,4.05
2022-11-01T11:29:53.031Z,3.22
2022-11-01T11:32:26.819Z,3.38
2022-11-01T11:34:58.289Z,3.83
2022-11-01T11:37:29.764Z,2.83
2022-11-01T11:40:24.322Z,2.17
2022-11-01T11:42:56.020Z,4.07
2022-11-01T11:45:27.371Z,3.50
2022-11-01T11:47:55.964Z,4.10
2022-11-01T11:50:33.973Z,3.20
2022-11-01T11:53:18.934Z,2.30
2022-11-01T11:56:01.143Z,2.53
2022-11-01T11:58:48.096Z,3.65
2022-11-01T12:01:22.909Z,1.63
2022-11-01T12:03:54.141Z,4.07
2022-11-01T12:08:55.562Z,2.03
2022-11-01T12:11:24.224Z,4.72
2022-11-01T12:14:19.148Z,6.45
2022-11-01T12:16:46.074Z,3.58
2022-11-01T12:19:32.302Z,4.55
2022-11-01T12:22:02.718Z,1.27
2022-11-01T12:24:50.823Z,2.70
2022-11-01T12:27:23.320Z,7.10
2022-11-01T12:30:11.436Z,4.72
2022-11-01T12:33:02.804Z,3.55
2022-11-01T12:35:41.999Z,3.50
2022-11-01T12:38:43.460Z,7.00
2022-11-01T12:41:44.549Z,4.75
2022-11-01T12:44:26.052Z,11.75
2022-11-01T12:47:16.842Z,3.83
2022-11-01T12:50:30.200Z,3.47
2022-11-01T12:53:10.456Z,5.80
2022-11-01T12:55:43.656Z,1.63
2022-11-01T12:58:16.278Z,1.63
2022-11-01T13:01:15.407Z,3.60
2022-11-01T13:04:12.448Z,6.68
2022-11-01T13:07:37.125Z,3.55
2022-11-01T13:10:58.301Z,5.30
2022-11-01T13:13:58.134Z,3.83
2022-11-01T13:16:39.906Z,3.53
2022-11-01T13:19:31.270Z,2.22
2022-11-01T13:22:25.592Z,3.15
2022-11-01T13:25:13.677Z,2.90
2022-11-01T13:28:15.653Z,4.65
2022-11-01T13:31:08.772Z,1.42
2022-11-01T13:34:04.354Z,1.98
2022-11-01T13:36:39.326Z,1.90
2022-11-01T13:40:19.503Z,3.65
2022-11-01T13:43:05.161Z,2.35
2022-11-01T13:46:03.010Z,2.63
2022-11-01T13:48:53.935Z,3.55
2022-11-01T13:51:49.301Z,5.38
2022-11-01T13:55:19.111Z,5.22
2022-11-01T13:57:46.310Z,4.20
2022-11-01T14:00:41.405Z,1.75
2022-11-01T14:03:30.130Z,3.25
2022-11-01T14:06:27.389Z,4.30
2022-11-01T14:09:26.205Z,2.08
2022-11-01T14:12:02.968Z,3.58
2022-11-01T14:14:29.593Z,4.13
2022-11-01T14:17:23.218Z,7.45
2022-11-01T14:19:55.737Z,4.93
2022-11-01T14:22:22.376Z,4.72
2022-11-01T14:24:58.235Z,2.70
2022-11-01T14:27:35.644Z,2.72
2022-11-01T14:30:16.620Z,4.43
2022-11-01T14:32:51.353Z,4.68
2022-11-01T14:35:30.740Z,2.50
2022-11-01T14:38:03.317Z,2.47
2022-11-01T14:40:56.684Z,3.65
2022-11-01T14:43:32.613Z,6.78
2022-11-01T14:46:08.838Z,0.80
2022-11-01T14:49:03.595Z,2.47
2022-11-01T14:51:59.555Z,3.80
2022-11-01T14:54:48.574Z,6.00
2022-11-01T14:57:27.722Z,4.65
2022-11-01T14:59:56.434Z,5.00
2022-11-01T15:02:25.731Z,4.65
2022-11-01T15:04:59.516Z,2.25
2022-11-01T15:07:31.901Z,3.90
2022-11-01T15:10:14.579Z,3.53
2022-11-01T15:12:51.621Z,0.80
2022-11-01T15:15:33.242Z,1.58
2022-11-01T15:18:05.901Z,6.07
2022-11-01T15:20:40.293Z,2.35
2022-11-01T15:23:14.836Z,2.88
2022-11-01T15:25:43.209Z,2.15
2022-11-01T15:28:22.794Z,5.88
2022-11-01T15:30:57.869Z,9.70
2022-11-01T15:33:45.265Z,4.97
2022-11-01T15:36:42.723Z,4.07
2022-11-01T15:39:24.190Z,3.95
2022-11-01T15:41:53.798Z,1.90
2022-11-01T15:44:24.529Z,2.47
2022-11-01T15:46:57.019Z,3.92
2022-11-01T15:49:32.391Z,3.80
2022-11-01T15:52:07.130Z,2.58
2022-11-01T15:54:40.895Z,3.65
2022-11-01T15:57:22.697Z,6.57
2022-11-01T16:00:26.573Z,4.70
2022-11-01T16:03:05.768Z,5.03
2022-11-01T16:05:42.741Z,5.80
2022-11-01T16:08:20.049Z,4.82
2022-11-01T16:10:47.019Z,3.80
2022-11-01T16:13:18.590Z,7.68
2022-11-01T16:16:06.945Z,2.42
2022-11-01T16:18:36.564Z,4.90
2022-11-01T16:21:21.066Z,5.43
2022-11-01T16:23:55.486Z,3.42
2022-11-01T16:26:22.245Z,6.82
2022-11-01T16:28:50.493Z,7.40
2022-11-01T16:31:19.176Z,4.68
2022-11-01T16:33:47.282Z,7.97
2022-11-01T16:36:19.811Z,3.10
2022-11-01T16:38:54.236Z,5.38
2022-11-01T16:41:38.048Z,7.28
2022-11-01T16:44:15.948Z,5.35
2022-11-01T16:46:43.135Z,6.13
2022-11-01T16:49:20.948Z,4.57
2022-11-01T16:51:47.773Z,11.00
2022-11-01T16:54:15.032Z,2.40
2022-11-01T16:56:47.887Z,6.82
2022-11-01T16:59:38.033Z,3.90
2022-11-01T17:02:28.285Z,5.57
2022-11-01T17:05:02.569Z,4.53
2022-11-01T17:07:30.676Z,6.72
2022-11-01T17:09:58.200Z,4.50
2022-11-01T17:12:24.934Z,5.60
2022-11-01T17:14:52.388Z,8.55
2022-11-01T17:17:24.430Z,8.95
2022-11-01T17:19:59.821Z,6.65
2022-11-01T17:22:36.445Z,5.78
2022-11-01T17:25:04.990Z,6.00
2022-11-01T17:27:32.036Z,9.13
2022-11-01T17:29:58.785Z,6.50
2022-11-01T17:32:25.578Z,3.58
2022-11-01T17:34:53.546Z,6.57
2022-11-01T17:37:22.131Z,11.13
2022-11-01T17:39:53.196Z,5.28
2022-11-01T17:42:19.928Z,5.47
2022-11-01T17:44:46.647Z,9.07
2022-11-01T17:47:15.297Z,6.70
2022-11-01T17:49:42.210Z,7.45
2022-11-01T17:52:09.073Z,6.68
2022-11-01T17:54:35.788Z,9.68
2022-11-01T17:57:02.526Z,4.15
2022-11-01T17:59:29.253Z,7.80
2022-11-01T18:01:56.056Z,6.30
2022-11-01T18:04:23.128Z,4.57
2022-11-01T18:06:50.424Z,5.65
2022-11-01T18:09:24.188Z,2.53
2022-11-01T18:12:37.905Z,5.43
2022-11-01T18:15:42.218Z,6.55
2022-11-01T18:18:24.389Z,5.05
2022-11-01T18:21:14.822Z,6.65
2022-11-01T18:23:46.009Z,7.63
2022-11-01T18:28:47.585Z,6.60
2022-11-01T18:31:47.558Z,5.97
2022-11-01T18:34:28.182Z,7.35
2022-11-01T18:37:26.440Z,5.90
2022-11-01T18:40:25.553Z,6.90
2022-11-01T18:42:53.796Z,5.03
2022-11-01T18:45:31.814Z,5.22
2022-11-01T18:48:24.997Z,4.97
2022-11-01T18:51:05.153Z,5.28
2022-11-01T18:53:34.474Z,6.68
2022-11-01T18:56:23.557Z,8.55
2022-11-01T18:58:52.395Z,9.38
2022-11-01T19:01:31.737Z,4.82
2022-11-01T19:04:11.539Z,9.02
2022-11-01T19:06:38.342Z,6.68
2022-11-01T19:09:22.876Z,8.30
2022-11-01T19:12:00.400Z,5.50
2022-11-01T19:14:28.595Z,5.68
2022-11-01T19:16:56.385Z,3.50
2022-11-01T19:19:23.400Z,4.93
2022-11-01T19:21:50.172Z,4.93
2022-11-01T19:24:31.435Z,5.70
2022-11-01T19:29:29.540Z,7.18
2022-11-01T19:32:02.996Z,3.30
2022-11-01T19:34:38.389Z,4.18
2022-11-01T19:37:26.566Z,4.30
2022-11-01T19:39:55.698Z,4.57
2022-11-01T19:42:31.328Z,6.63
2022-11-01T19:45:03.094Z,5.50
2022-11-01T19:47:41.781Z,7.93
2022-11-01T19:50:22.032Z,11.02
2022-11-01T19:52:52.648Z,3.80
2022-11-01T19:55:36.687Z,4.70
2022-11-01T19:58:27.899Z,5.82
2022-11-01T20:01:09.787Z,5.68
2022-11-01T20:03:44.390Z,13.02
2022-11-01T20:06:20.700Z,3.30
2022-11-01T20:08:51.782Z,3.63
2022-11-01T20:11:18.515Z,10.02
2022-11-01T20:13:45.410Z,5.50
2022-11-01T20:16:12.233Z,10.82
2022-11-01T20:18:39.432Z,7.82
2022-11-01T20:21:17.773Z,7.00
2022-11-01T20:24:23.654Z,12.13
2022-11-01T20:27:23.221Z,5.82
2022-11-01T20:30:22.114Z,5.65
2022-11-01T20:33:22.696Z,2.70
2022-11-01T20:36:21.431Z,6.27
2022-11-01T20:39:32.479Z,3.38
2022-11-01T20:42:22.776Z,6.03
2022-11-01T20:45:22.261Z,7.63
2022-11-01T20:47:49.528Z,5.45
2022-11-01T20:50:16.894Z,5.63
2022-11-01T20:52:44.271Z,5.75
2022-11-01T20:55:12.323Z,6.68
2022-11-01T20:57:39.326Z,4.32
2022-11-01T21:00:09.848Z,5.80
2022-11-01T21:02:37.045Z,5.35
2022-11-01T21:05:26.750Z,5.05
2022-11-01T21:08:08.032Z,8.68
2022-11-01T21:13:27.185Z,5.78
2022-11-01T21:15:59.881Z,3.83
2022-11-01T21:18:39.661Z,3.83
2022-11-01T21:21:33.972Z,4.38
2022-11-01T21:24:31.447Z,4.95
2022-11-01T21:27:13.014Z,8.55
2022-11-01T21:29:46.304Z,4.85
2022-11-01T21:32:29.774Z,5.13
2022-11-01T21:34:59.754Z,8.15
2022-11-01T21:37:29.017Z,4.65
2022-11-01T21:40:04.868Z,5.25
2022-11-01T21:42:35.899Z,4.25
2022-11-01T21:45:38.509Z,7.05
2022-11-01T21:48:27.520Z,10.02
2022-11-01T21:50:54.232Z,8.40
2022-11-01T21:53:20.965Z,5.18
2022-11-01T21:55:47.795Z,6.78
2022-11-01T21:58:14.593Z,5.50
2022-11-01T22:00:41.306Z,8.20
2022-11-01T22:03:08.070Z,12.27
2022-11-01T22:05:34.787Z,7.35
2022-11-01T22:08:01.521Z,7.78
2022-11-01T22:10:28.306Z,4.68
2022-11-01T22:12:55.043Z,8.07
2022-11-01T22:15:21.769Z,5.25
2022-11-01T22:17:48.505Z,9.70
2022-11-01T22:20:15.275Z,5.00
2022-11-01T22:22:42.014Z,15.25
2022-11-01T22:25:08.918Z,8.90
2022-11-01T22:27:36.321Z,9.05
2022-11-01T22:30:05.021Z,9.02
2022-11-01T22:32:31.771Z,8.25
2022-11-01T22:34:58.542Z,9.25
2022-11-01T22:37:26.419Z,6.25
2022-11-01T22:39:53.875Z,7.82
2022-11-01T22:42:20.746Z,6.45
2022-11-01T22:44:50.075Z,7.63
2022-11-01T22:47:28.251Z,9.90
2022-11-01T22:50:01.482Z,13.02
2022-11-01T22:52:41.852Z,8.32
2022-11-01T22:55:11.378Z,8.77
2022-11-01T22:57:46.125Z,9.80
2022-11-01T23:00:31.277Z,8.90
2022-11-01T23:03:22.597Z,11.55
2022-11-01T23:05:52.994Z,10.23
2022-11-01T23:08:33.944Z,8.93
2022-11-01T23:11:01.621Z,7.80
2022-11-01T23:13:55.693Z,4.57
2022-11-01T23:16:42.679Z,7.70
2022-11-01T23:19:13.120Z,8.70
2022-11-01T23:21:40.163Z,10.52
2022-11-01T23:24:08.076Z,9.45
2022-11-01T23:26:34.915Z,12.50
2022-11-01T23:29:02.520Z,9.57
2022-11-01T23:31:29.805Z,8.20
2022-11-01T23:33:56.568Z,7.75
2022-11-01T23:36:37.411Z,8.07
2022-11-01T23:39:11.959Z,8.38
2022-11-01T23:41:44.700Z,7.20
2022-11-01T23:44:28.144Z,11.70
2022-11-01T23:47:19.188Z,11.70
2022-11-01T23:49:51.329Z,10.65
2022-11-01T23:52:43.555Z,5.15
2022-11-01T23:55:23.969Z,4.03
2022-11-01T23:57:59.190Z,9.63
